Date,TemperatureHighF,TemperatureAvgF,TemperatureLowF,DewpointHighF,DewpointAvgF,DewpointLowF,HumidityHigh,HumidityAvg,HumidityLow,PressureMaxIn,PressureMinIn,WindSpeedMaxMPH,WindSpeedAvgMPH,GustSpeedMaxMPH,PrecipitationSumIn
2013-3-1,52.6,40.0,26.3,33.4,26.8,20.6,80,61,42,29.95,29.86,4,1,4,0.00
2013-3-2,47.3,40.4,36.0,38.3,31.4,23.1,86,71,56,29.95,29.86,8,2,8,0.12
2013-3-3,47.2,35.8,27.5,23.0,19.1,15.6,69,52,36,30.03,29.91,6,2,6,0.00
2013-3-4,58.0,42.3,29.3,27.2,19.9,14.9,55,42,27,30.15,30.02,8,2,8,0.01
2013-3-5,62.8,48.2,39.6,49.0,38.4,26.0,87,69,53,30.08,29.65,7,1,7,0.37
2013-3-6,48.4,40.1,31.7,37.0,26.4,22.7,75,59,42,30.12,29.68,12,3,12,0.00
2013-3-7,58.0,41.5,24.8,32.7,26.1,19.9,82,57,33,30.25,30.12,5,1,5,0.00
2013-3-8,58.9,42.9,28.1,26.8,23.5,19.8,73,49,27,30.33,30.19,6,1,6,0.00
2013-3-9,64.3,45.8,27.4,35.0,27.8,20.4,76,52,31,30.36,30.23,4,0,4,0.00
2013-3-10,69.5,51.2,34.2,41.0,34.8,26.8,79,56,34,30.30,30.16,5,1,5,0.00
2013-3-11,71.3,55.4,41.8,52.4,43.5,34.0,85,65,49,30.18,29.85,9,1,9,0.31
2013-3-12,68.6,58.8,49.3,54.9,47.5,28.6,89,70,33,30.01,29.77,5,2,5,0.37
2013-3-13,61.7,50.0,38.9,34.6,25.8,19.4,62,40,24,30.18,30.00,8,3,8,0.00
2013-3-14,57.1,42.2,30.2,24.0,19.4,15.5,55,41,23,30.31,30.17,7,2,7,0.00
2013-3-15,73.4,50.2,28.3,41.7,30.9,19.1,73,50,31,30.20,29.93,9,2,9,0.00
2013-3-16,79.9,66.3,56.0,50.2,43.5,39.0,56,45,32,29.94,29.79,8,3,8,0.00
2013-3-17,79.2,66.2,52.2,51.0,45.3,38.9,65,48,35,30.07,29.89,7,2,7,0.01
2013-3-18,52.2,44.3,41.6,41.9,39.5,38.0,91,83,65,30.12,29.89,6,2,6,1.43
2013-3-19,70.9,53.3,42.7,43.7,35.5,23.5,91,59,23,30.06,29.87,8,2,8,0.00
2013-3-20,62.3,50.3,39.2,29.9,21.4,16.3,62,33,23,30.13,29.82,6,2,6,0.00
2013-3-21,51.1,40.7,32.2,28.1,17.7,11.8,60,41,28,29.97,29.83,8,2,8,0.00
2013-3-22,54.4,39.3,23.9,24.9,19.7,12.2,72,47,31,30.09,29.97,5,1,5,0.00
2013-3-23,50.0,44.3,41.4,43.8,36.2,25.5,87,74,48,30.05,29.91,2,0,2,0.10
2013-3-24,45.2,43.4,40.7,41.7,39.9,37.1,91,87,81,29.92,29.59,7,2,7,1.16
2013-3-25,49.5,42.3,36.0,38.6,29.6,22.6,89,63,42,29.94,29.58,12,3,12,0.00
2013-3-26,50.8,39.9,29.5,27.5,23.8,20.9,71,54,38,30.20,29.94,9,3,9,0.00
2013-3-27,58.1,44.6,33.8,28.9,24.5,21.1,62,47,31,30.28,30.17,5,2,5,0.00
2013-3-28,62.1,45.0,26.3,29.0,22.5,18.3,76,45,24,30.32,30.19,7,1,7,0.00
2013-3-29,66.4,46.6,28.4,39.5,28.0,19.4,75,51,25,30.35,30.21,5,1,5,0.00
2013-3-30,70.2,56.5,45.7,45.5,41.7,38.4,81,60,38,30.23,30.05,4,1,4,0.00
2013-3-31,74.2,60.5,50.8,58.1,50.9,41.8,88,72,50,30.07,29.86,7,2,7,0.37